sensor_id;sensor_type;location;lat;lon;timestamp;pressure;altitude;pressure_sealevel;temperature;humidity
14273;BME280;7220;49.450;11.052;2023-04-04T00:01:18;99111.00;;;3.66;47.67
14273;BME280;7220;49.450;11.052;2023-04-04T00:05:18;99108.16;;;3.86;47.19
14273;BME280;7220;49.450;11.052;2023-04-04T00:09:19;99109.19;;;3.73;47.19
14273;BME280;7220;49.450;11.052;2023-04-04T00:13:19;99111.97;;;3.59;47.58
14273;BME280;7220;49.450;11.052;2023-04-04T00:17:20;99117.00;;;3.79;47.34
14273;BME280;7220;49.450;11.052;2023-04-04T00:21:20;99116.88;;;3.90;47.00
14273;BME280;7220;49.450;11.052;2023-04-04T00:25:20;99104.34;;;4.12;46.49
14273;BME280;7220;49.450;11.052;2023-04-04T00:29:20;99101.97;;;3.90;47.51
14273;BME280;7220;49.450;11.052;2023-04-04T00:33:21;99092.00;;;4.16;46.53
14273;BME280;7220;49.450;11.052;2023-04-04T00:37:21;99086.91;;;4.02;46.90
14273;BME280;7220;49.450;11.052;2023-04-04T00:41:22;99086.03;;;4.04;46.73
14273;BME280;7220;49.450;11.052;2023-04-04T00:45:22;99096.41;;;4.14;47.12
14273;BME280;7220;49.450;11.052;2023-04-04T00:49:23;99083.19;;;4.78;45.51
14273;BME280;7220;49.450;11.052;2023-04-04T00:53:23;99083.97;;;4.28;46.45
14273;BME280;7220;49.450;11.052;2023-04-04T00:57:24;99076.81;;;4.38;46.02
14273;BME280;7220;49.450;11.052;2023-04-04T01:01:26;99084.47;;;4.53;45.00
14273;BME280;7220;49.450;11.052;2023-04-04T01:05:27;99071.16;;;4.61;44.43
14273;BME280;7220;49.450;11.052;2023-04-04T01:09:27;99077.69;;;4.37;43.76
14273;BME280;7220;49.450;11.052;2023-04-04T01:13:28;99075.94;;;4.36;44.06
14273;BME280;7220;49.450;11.052;2023-04-04T01:17:28;99070.56;;;4.45;43.52
14273;BME280;7220;49.450;11.052;2023-04-04T01:21:29;99068.03;;;4.39;43.25
14273;BME280;7220;49.450;11.052;2023-04-04T01:25:30;99080.59;;;4.17;43.32
14273;BME280;7220;49.450;11.052;2023-04-04T01:29:33;99076.25;;;4.14;43.12
14273;BME280;7220;49.450;11.052;2023-04-04T01:33:39;99081.00;;;3.86;42.91
14273;BME280;7220;49.450;11.052;2023-04-04T01:38:05;99076.75;;;3.74;42.51
14273;BME280;7220;49.450;11.052;2023-04-04T01:42:08;99073.38;;;3.62;42.88
14273;BME280;7220;49.450;11.052;2023-04-04T01:46:08;99067.16;;;3.71;43.17
14273;BME280;7220;49.450;11.052;2023-04-04T01:50:10;99069.84;;;3.63;42.75
14273;BME280;7220;49.450;11.052;2023-04-04T01:54:10;99072.53;;;3.59;43.11
14273;BME280;7220;49.450;11.052;2023-04-04T01:58:11;99066.41;;;3.57;43.20
14273;BME280;7220;49.450;11.052;2023-04-04T02:02:11;99067.44;;;3.45;43.25
14273;BME280;7220;49.450;11.052;2023-04-04T02:06:11;99059.94;;;3.08;44.26
14273;BME280;7220;49.450;11.052;2023-04-04T02:10:12;99071.22;;;3.18;44.47
14273;BME280;7220;49.450;11.052;2023-04-04T02:14:12;99062.59;;;3.03;44.45
14273;BME280;7220;49.450;11.052;2023-04-04T02:18:13;99070.50;;;2.98;44.86
14273;BME280;7220;49.450;11.052;2023-04-04T02:22:14;99052.94;;;3.07;45.02
14273;BME280;7220;49.450;11.052;2023-04-04T02:26:14;99046.56;;;3.31;44.37
14273;BME280;7220;49.450;11.052;2023-04-04T02:30:14;99056.59;;;2.92;44.45
14273;BME280;7220;49.450;11.052;2023-04-04T02:34:15;99055.75;;;2.88;45.17
14273;BME280;7220;49.450;11.052;2023-04-04T02:38:15;99046.84;;;3.03;45.30
14273;BME280;7220;49.450;11.052;2023-04-04T02:42:15;99045.16;;;2.99;45.43
14273;BME280;7220;49.450;11.052;2023-04-04T02:46:16;99041.84;;;2.75;46.06
14273;BME280;7220;49.450;11.052;2023-04-04T02:50:17;99048.06;;;2.63;46.31
14273;BME280;7220;49.450;11.052;2023-04-04T02:54:18;99036.47;;;2.89;45.79
14273;BME280;7220;49.450;11.052;2023-04-04T02:58:18;99043.53;;;2.81;46.24
14273;BME280;7220;49.450;11.052;2023-04-04T03:02:18;99034.00;;;2.71;46.12
14273;BME280;7220;49.450;11.052;2023-04-04T03:06:18;99042.91;;;2.51;46.58
14273;BME280;7220;49.450;11.052;2023-04-04T03:10:19;99053.38;;;2.54;46.88
14273;BME280;7220;49.450;11.052;2023-04-04T03:14:20;99035.22;;;2.28;47.38
14273;BME280;7220;49.450;11.052;2023-04-04T03:18:21;99046.59;;;2.22;47.30
14273;BME280;7220;49.450;11.052;2023-04-04T03:22:21;99042.00;;;2.55;46.60
14273;BME280;7220;49.450;11.052;2023-04-04T03:26:21;99034.16;;;2.52;46.61
14273;BME280;7220;49.450;11.052;2023-04-04T03:30:22;99029.66;;;2.68;46.31
14273;BME280;7220;49.450;11.052;2023-04-04T03:34:22;99030.78;;;2.36;47.33
14273;BME280;7220;49.450;11.052;2023-04-04T03:38:23;99034.28;;;2.33;47.72
14273;BME280;7220;49.450;11.052;2023-04-04T03:42:24;99031.69;;;2.30;47.82
14273;BME280;7220;49.450;11.052;2023-04-04T03:46:25;99036.34;;;1.79;48.67
14273;BME280;7220;49.450;11.052;2023-04-04T03:50:26;99031.03;;;1.94;48.82
14273;BME280;7220;49.450;11.052;2023-04-04T03:54:27;99044.31;;;1.55;49.51
14273;BME280;7220;49.450;11.052;2023-04-04T03:58:28;99043.44;;;1.55;49.90
14273;BME280;7220;49.450;11.052;2023-04-04T04:02:29;99039.03;;;1.65;49.58
14273;BME280;7220;49.450;11.052;2023-04-04T04:06:29;99035.53;;;1.69;49.17
14273;BME280;7220;49.450;11.052;2023-04-04T04:10:29;99038.94;;;1.86;49.39
14273;BME280;7220;49.450;11.052;2023-04-04T04:14:30;99034.66;;;1.65;50.00
14273;BME280;7220;49.450;11.052;2023-04-04T04:18:33;99039.91;;;1.62;50.83
14273;BME280;7220;49.450;11.052;2023-04-04T04:22:34;99033.72;;;1.79;50.96
14273;BME280;7220;49.450;11.052;2023-04-04T04:26:34;99032.09;;;1.59;51.07
14273;BME280;7220;49.450;11.052;2023-04-04T04:30:35;99028.44;;;1.85;50.61
14273;BME280;7220;49.450;11.052;2023-04-04T04:34:35;99032.91;;;1.61;50.79
14273;BME280;7220;49.450;11.052;2023-04-04T04:38:38;99039.88;;;1.75;50.67
14273;BME280;7220;49.450;11.052;2023-04-04T04:42:45;99032.03;;;1.65;51.06
14273;BME280;7220;49.450;11.052;2023-04-04T04:46:45;99027.69;;;1.67;51.10
14273;BME280;7220;49.450;11.052;2023-04-04T04:50:46;99040.78;;;1.56;51.16
14273;BME280;7220;49.450;11.052;2023-04-04T04:54:47;99038.09;;;1.80;50.83
14273;BME280;7220;49.450;11.052;2023-04-04T04:58:48;99034.63;;;1.75;51.04
14273;BME280;7220;49.450;11.052;2023-04-04T05:02:50;99040.00;;;1.33;51.76
14273;BME280;7220;49.450;11.052;2023-04-04T05:06:50;99044.28;;;1.62;50.92
14273;BME280;7220;49.450;11.052;2023-04-04T05:10:50;99035.66;;;1.33;51.81
14273;BME280;7220;49.450;11.052;2023-04-04T05:14:51;99026.81;;;1.64;50.99
14273;BME280;7220;49.450;11.052;2023-04-04T05:18:52;99023.25;;;1.82;50.12
14273;BME280;7220;49.450;11.052;2023-04-04T05:22:52;99037.28;;;1.67;51.18
14273;BME280;7220;49.450;11.052;2023-04-04T05:26:52;99030.34;;;1.50;51.45
14273;BME280;7220;49.450;11.052;2023-04-04T05:30:53;99029.41;;;1.71;50.52
14273;BME280;7220;49.450;11.052;2023-04-04T05:34:53;99036.44;;;1.54;51.22
14273;BME280;7220;49.450;11.052;2023-04-04T05:38:53;99041.63;;;1.76;50.68
14273;BME280;7220;49.450;11.052;2023-04-04T05:42:58;99045.13;;;1.75;50.28
14273;BME280;7220;49.450;11.052;2023-04-04T05:46:58;99040.78;;;1.66;50.91
14273;BME280;7220;49.450;11.052;2023-04-04T05:50:59;99045.81;;;2.08;49.54
14273;BME280;7220;49.450;11.052;2023-04-04T05:55:01;99032.59;;;2.21;48.79
14273;BME280;7220;49.450;11.052;2023-04-04T05:59:01;99038.03;;;1.94;49.33
14273;BME280;7220;49.450;11.052;2023-04-04T06:03:02;99045.88;;;1.98;49.71
14273;BME280;7220;49.450;11.052;2023-04-04T06:07:02;99055.59;;;1.71;50.58
14273;BME280;7220;49.450;11.052;2023-04-04T06:11:02;99057.38;;;1.63;51.06
14273;BME280;7220;49.450;11.052;2023-04-04T06:15:03;99054.41;;;2.30;48.89
14273;BME280;7220;49.450;11.052;2023-04-04T06:19:03;99048.50;;;1.95;49.96
14273;BME280;7220;49.450;11.052;2023-04-04T06:23:03;99064.38;;;1.67;51.56
14273;BME280;7220;49.450;11.052;2023-04-04T06:27:04;99055.53;;;1.90;50.38
14273;BME280;7220;49.450;11.052;2023-04-04T06:31:05;99057.19;;;2.03;50.40
14273;BME280;7220;49.450;11.052;2023-04-04T06:35:06;99054.66;;;1.85;50.75
14273;BME280;7220;49.450;11.052;2023-04-04T06:39:06;99047.59;;;2.05;50.34
14273;BME280;7220;49.450;11.052;2023-04-04T06:43:07;99058.09;;;1.99;51.06
14273;BME280;7220;49.450;11.052;2023-04-04T06:47:08;99059.72;;;2.22;49.98
14273;BME280;7220;49.450;11.052;2023-04-04T06:51:08;99052.25;;;2.84;48.79
14273;BME280;7220;49.450;11.052;2023-04-04T06:55:09;99045.41;;;2.66;48.78
14273;BME280;7220;49.450;11.052;2023-04-04T06:59:09;99058.81;;;2.25;50.41
14273;BME280;7220;49.450;11.052;2023-04-04T07:03:11;99062.28;;;2.30;50.36
14273;BME280;7220;49.450;11.052;2023-04-04T07:07:11;99050.75;;;2.52;50.42
14273;BME280;7220;49.450;11.052;2023-04-04T07:11:12;99060.13;;;2.84;49.23
14273;BME280;7220;49.450;11.052;2023-04-04T07:15:12;99049.75;;;2.71;50.34
14273;BME280;7220;49.450;11.052;2023-04-04T07:19:13;99054.94;;;2.80;49.93
14273;BME280;7220;49.450;11.052;2023-04-04T07:23:13;99059.28;;;2.84;49.93
14273;BME280;7220;49.450;11.052;2023-04-04T07:27:14;99050.31;;;3.07;49.81
14273;BME280;7220;49.450;11.052;2023-04-04T07:31:15;99059.97;;;3.03;49.72
14273;BME280;7220;49.450;11.052;2023-04-04T07:35:15;99051.09;;;3.18;50.28
14273;BME280;7220;49.450;11.052;2023-04-04T07:39:15;99057.16;;;3.23;49.91
14273;BME280;7220;49.450;11.052;2023-04-04T07:43:16;99054.38;;;3.39;49.18
14273;BME280;7220;49.450;11.052;2023-04-04T07:47:17;99055.75;;;3.71;47.99
14273;BME280;7220;49.450;11.052;2023-04-04T07:51:17;99055.72;;;3.74;47.87
14273;BME280;7220;49.450;11.052;2023-04-04T07:55:20;99045.81;;;3.96;47.21
14273;BME280;7220;49.450;11.052;2023-04-04T07:59:20;99062.44;;;3.97;47.65
14273;BME280;7220;49.450;11.052;2023-04-04T08:03:21;99055.56;;;3.86;47.00
14273;BME280;7220;49.450;11.052;2023-04-04T08:07:22;99053.00;;;3.83;47.65
14273;BME280;7220;49.450;11.052;2023-04-04T08:11:24;99058.03;;;3.99;46.93
14273;BME280;7220;49.450;11.052;2023-04-04T08:15:24;99057.25;;;3.92;47.00
14273;BME280;7220;49.450;11.052;2023-04-04T08:19:25;99043.53;;;4.32;45.93
14273;BME280;7220;49.450;11.052;2023-04-04T08:23:25;99051.44;;;4.32;45.50
14273;BME280;7220;49.450;11.052;2023-04-04T08:27:26;99044.19;;;4.48;45.37
14273;BME280;7220;49.450;11.052;2023-04-04T08:31:27;99044.53;;;4.83;43.27
14273;BME280;7220;49.450;11.052;2023-04-04T08:35:28;99036.28;;;5.03;41.57
14273;BME280;7220;49.450;11.052;2023-04-04T08:39:29;99049.66;;;5.41;41.17
14273;BME280;7220;49.450;11.052;2023-04-04T08:43:33;99036.09;;;5.59;41.28
14273;BME280;7220;49.450;11.052;2023-04-04T08:47:34;99041.75;;;5.84;40.89
14273;BME280;7220;49.450;11.052;2023-04-04T08:51:35;99046.59;;;6.06;40.08
14273;BME280;7220;49.450;11.052;2023-04-04T08:55:37;99039.88;;;6.30;40.32
14273;BME280;7220;49.450;11.052;2023-04-04T08:59:38;99032.00;;;6.29;39.84
14273;BME280;7220;49.450;11.052;2023-04-04T09:03:39;99030.63;;;6.88;38.96
14273;BME280;7220;49.450;11.052;2023-04-04T09:07:41;99037.19;;;6.70;38.41
14273;BME280;7220;49.450;11.052;2023-04-04T09:11:42;99029.47;;;7.31;37.97
14273;BME280;7220;49.450;11.052;2023-04-04T09:15:52;99041.41;;;7.13;38.55
14273;BME280;7220;49.450;11.052;2023-04-04T09:19:54;99044.78;;;7.18;38.67
14273;BME280;7220;49.450;11.052;2023-04-04T09:23:59;99032.63;;;7.13;39.11
14273;BME280;7220;49.450;11.052;2023-04-04T09:28:01;99039.66;;;6.77;39.12
14273;BME280;7220;49.450;11.052;2023-04-04T09:32:13;99042.31;;;6.77;39.13
14273;BME280;7220;49.450;11.052;2023-04-04T09:36:15;99047.44;;;7.18;39.59
14273;BME280;7220;49.450;11.052;2023-04-04T09:40:15;99045.28;;;7.00;39.60
14273;BME280;7220;49.450;11.052;2023-04-04T09:44:15;99039.50;;;7.20;38.63
14273;BME280;7220;49.450;11.052;2023-04-04T09:48:25;99036.13;;;7.13;38.35
14273;BME280;7220;49.450;11.052;2023-04-04T09:52:26;99026.22;;;7.21;38.38
14273;BME280;7220;49.450;11.052;2023-04-04T09:56:27;99036.53;;;6.98;38.47
14273;BME280;7220;49.450;11.052;2023-04-04T10:00:28;99037.63;;;7.23;37.81
14273;BME280;7220;49.450;11.052;2023-04-04T10:04:34;99033.28;;;7.21;38.47
14273;BME280;7220;49.450;11.052;2023-04-04T10:08:38;99037.06;;;7.10;39.11
14273;BME280;7220;49.450;11.052;2023-04-04T10:12:38;99034.94;;;7.25;37.75
14273;BME280;7220;49.450;11.052;2023-04-04T10:16:43;99028.31;;;7.08;36.89
14273;BME280;7220;49.450;11.052;2023-04-04T10:20:45;99018.41;;;7.17;36.88
14273;BME280;7220;49.450;11.052;2023-04-04T10:24:45;99020.81;;;7.26;36.27
14273;BME280;7220;49.450;11.052;2023-04-04T10:28:46;99008.59;;;7.53;35.63
14273;BME280;7220;49.450;11.052;2023-04-04T10:32:59;99002.84;;;8.00;35.34
14273;BME280;7220;49.450;11.052;2023-04-04T10:37:12;98996.94;;;8.19;35.65
14273;BME280;7220;49.450;11.052;2023-04-04T10:41:12;98994.13;;;8.25;35.37
14273;BME280;7220;49.450;11.052;2023-04-04T10:45:14;98997.75;;;8.51;34.61
14273;BME280;7220;49.450;11.052;2023-04-04T10:49:15;99007.81;;;8.10;35.61
14273;BME280;7220;49.450;11.052;2023-04-04T10:53:15;99001.41;;;8.45;35.30
14273;BME280;7220;49.450;11.052;2023-04-04T10:57:16;98998.59;;;8.23;35.63
14273;BME280;7220;49.450;11.052;2023-04-04T11:01:18;99000.66;;;8.70;34.83
14273;BME280;7220;49.450;11.052;2023-04-04T11:05:25;98991.94;;;8.66;34.03
14273;BME280;7220;49.450;11.052;2023-04-04T11:09:51;98984.31;;;8.57;34.15
14273;BME280;7220;49.450;11.052;2023-04-04T11:13:59;98982.97;;;8.71;34.14
14273;BME280;7220;49.450;11.052;2023-04-04T11:18:04;98991.66;;;8.49;34.44
14273;BME280;7220;49.450;11.052;2023-04-04T11:22:05;98984.09;;;8.35;33.95
14273;BME280;7220;49.450;11.052;2023-04-04T11:26:05;98983.97;;;8.40;34.94
14273;BME280;7220;49.450;11.052;2023-04-04T11:30:11;98976.72;;;8.45;35.19
14273;BME280;7220;49.450;11.052;2023-04-04T11:34:14;98985.91;;;9.64;33.73
14273;BME280;7220;49.450;11.052;2023-04-04T11:38:28;98973.88;;;9.54;33.40
14273;BME280;7220;49.450;11.052;2023-04-04T11:42:33;98957.66;;;10.53;32.70
14273;BME280;7220;49.450;11.052;2023-04-04T11:46:36;98956.75;;;11.37;32.55
14273;BME280;7220;49.450;11.052;2023-04-04T11:50:38;98956.22;;;11.88;31.14
14273;BME280;7220;49.450;11.052;2023-04-04T11:54:40;98951.16;;;11.43;30.76
14273;BME280;7220;49.450;11.052;2023-04-04T11:58:46;98946.72;;;10.82;30.44
14273;BME280;7220;49.450;11.052;2023-04-04T12:02:47;98943.97;;;10.18;30.24
14273;BME280;7220;49.450;11.052;2023-04-04T12:06:49;98955.03;;;10.07;31.03
14273;BME280;7220;49.450;11.052;2023-04-04T12:10:53;98950.16;;;10.19;31.03
14273;BME280;7220;49.450;11.052;2023-04-04T12:14:53;98944.84;;;9.97;31.43
14273;BME280;7220;49.450;11.052;2023-04-04T12:19:00;98949.41;;;9.93;31.74
14273;BME280;7220;49.450;11.052;2023-04-04T12:23:00;98943.31;;;10.35;32.22
14273;BME280;7220;49.450;11.052;2023-04-04T12:27:01;98947.88;;;10.09;32.44
14273;BME280;7220;49.450;11.052;2023-04-04T12:31:03;98958.78;;;9.56;32.30
14273;BME280;7220;49.450;11.052;2023-04-04T12:35:05;98957.31;;;9.94;32.14
14273;BME280;7220;49.450;11.052;2023-04-04T12:39:08;98941.47;;;10.15;30.95
14273;BME280;7220;49.450;11.052;2023-04-04T12:43:15;98917.66;;;10.98;31.81
14273;BME280;7220;49.450;11.052;2023-04-04T12:47:16;98926.16;;;11.27;29.77
14273;BME280;7220;49.450;11.052;2023-04-04T12:51:19;98926.78;;;10.71;30.38
14273;BME280;7220;49.450;11.052;2023-04-04T12:55:21;98927.78;;;9.80;31.64
14273;BME280;7220;49.450;11.052;2023-04-04T12:59:21;98929.25;;;9.65;32.03
14273;BME280;7220;49.450;11.052;2023-04-04T13:03:23;98918.03;;;10.03;31.43
14273;BME280;7220;49.450;11.052;2023-04-04T13:07:25;98912.22;;;11.22;31.59
14273;BME280;7220;49.450;11.052;2023-04-04T13:12:19;98921.47;;;10.71;31.10
14273;BME280;7220;49.450;11.052;2023-04-04T13:16:34;98904.13;;;10.18;30.05
14273;BME280;7220;49.450;11.052;2023-04-04T13:20:36;98899.53;;;10.23;30.23
14273;BME280;7220;49.450;11.052;2023-04-04T13:24:36;98879.22;;;13.07;28.35
14273;BME280;7220;49.450;11.052;2023-04-04T13:28:37;98874.38;;;13.65;27.41
14273;BME280;7220;49.450;11.052;2023-04-04T13:32:37;98884.28;;;12.96;28.34
14273;BME280;7220;49.450;11.052;2023-04-04T13:36:37;98882.16;;;12.33;29.37
14273;BME280;7220;49.450;11.052;2023-04-04T13:40:38;98875.69;;;12.02;29.66
14273;BME280;7220;49.450;11.052;2023-04-04T13:44:38;98867.78;;;11.43;30.29
14273;BME280;7220;49.450;11.052;2023-04-04T13:48:38;98872.28;;;12.35;29.09
14273;BME280;7220;49.450;11.052;2023-04-04T13:52:39;98876.16;;;13.15;28.24
14273;BME280;7220;49.450;11.052;2023-04-04T13:56:39;98852.19;;;15.46;25.65
14273;BME280;7220;49.450;11.052;2023-04-04T14:00:40;98852.69;;;16.35;25.14
14273;BME280;7220;49.450;11.052;2023-04-04T14:04:41;98856.22;;;16.63;24.65
14273;BME280;7220;49.450;11.052;2023-04-04T14:08:42;98846.72;;;17.23;23.80
14273;BME280;7220;49.450;11.052;2023-04-04T14:12:42;98848.63;;;17.84;23.27
14273;BME280;7220;49.450;11.052;2023-04-04T14:16:42;98839.72;;;17.46;23.35
14273;BME280;7220;49.450;11.052;2023-04-04T14:20:43;98849.03;;;15.39;25.19
14273;BME280;7220;49.450;11.052;2023-04-04T14:24:43;98850.09;;;13.86;26.13
14273;BME280;7220;49.450;11.052;2023-04-04T14:28:43;98850.53;;;12.95;27.07
14273;BME280;7220;49.450;11.052;2023-04-04T14:32:44;98853.88;;;12.30;27.99
14273;BME280;7220;49.450;11.052;2023-04-04T14:36:45;98862.38;;;12.02;27.82
14273;BME280;7220;49.450;11.052;2023-04-04T14:40:46;98844.91;;;12.66;28.55
14273;BME280;7220;49.450;11.052;2023-04-04T14:44:46;98835.00;;;14.31;26.75
14273;BME280;7220;49.450;11.052;2023-04-04T14:48:47;98838.91;;;14.26;27.15
14273;BME280;7220;49.450;11.052;2023-04-04T14:52:47;98836.91;;;13.17;27.12
14273;BME280;7220;49.450;11.052;2023-04-04T14:56:50;98841.94;;;12.37;28.71
14273;BME280;7220;49.450;11.052;2023-04-04T15:00:50;98841.28;;;11.78;28.93
14273;BME280;7220;49.450;11.052;2023-04-04T15:04:50;98842.44;;;12.45;29.01
14273;BME280;7220;49.450;11.052;2023-04-04T15:08:51;98828.69;;;13.38;28.08
14273;BME280;7220;49.450;11.052;2023-04-04T15:12:51;98837.19;;;13.29;27.74
14273;BME280;7220;49.450;11.052;2023-04-04T15:16:52;98829.66;;;13.03;28.33
14273;BME280;7220;49.450;11.052;2023-04-04T15:20:56;98828.31;;;12.61;28.92
14273;BME280;7220;49.450;11.052;2023-04-04T15:24:56;98829.09;;;12.45;29.45
14273;BME280;7220;49.450;11.052;2023-04-04T15:28:56;98823.31;;;11.64;29.58
14273;BME280;7220;49.450;11.052;2023-04-04T15:32:57;98820.78;;;12.34;28.52
14273;BME280;7220;49.450;11.052;2023-04-04T15:36:57;98827.25;;;12.81;28.68
14273;BME280;7220;49.450;11.052;2023-04-04T15:41:04;98818.13;;;12.52;29.65
14273;BME280;7220;49.450;11.052;2023-04-04T15:45:05;98830.41;;;11.82;29.44
14273;BME280;7220;49.450;11.052;2023-04-04T15:49:06;98823.63;;;11.39;29.80
14273;BME280;7220;49.450;11.052;2023-04-04T15:53:06;98826.50;;;11.15;30.92
14273;BME280;7220;49.450;11.052;2023-04-04T15:57:06;98830.69;;;10.60;31.39
14273;BME280;7220;49.450;11.052;2023-04-04T16:01:07;98822.78;;;10.79;30.93
14273;BME280;7220;49.450;11.052;2023-04-04T16:05:07;98825.66;;;10.94;30.85
14273;BME280;7220;49.450;11.052;2023-04-04T16:09:08;98832.19;;;10.66;31.73
14273;BME280;7220;49.450;11.052;2023-04-04T16:13:09;98818.00;;;10.46;31.88
14273;BME280;7220;49.450;11.052;2023-04-04T16:17:09;98820.66;;;10.67;30.82
14273;BME280;7220;49.450;11.052;2023-04-04T16:21:10;98805.72;;;11.23;30.64
14273;BME280;7220;49.450;11.052;2023-04-04T16:25:10;98808.00;;;11.12;31.05
14273;BME280;7220;49.450;11.052;2023-04-04T16:29:10;98810.63;;;11.13;31.35
14273;BME280;7220;49.450;11.052;2023-04-04T16:33:11;98801.13;;;11.27;30.99
14273;BME280;7220;49.450;11.052;2023-04-04T16:37:11;98798.81;;;11.57;30.29
14273;BME280;7220;49.450;11.052;2023-04-04T16:41:12;98805.84;;;11.01;31.55
14273;BME280;7220;49.450;11.052;2023-04-04T16:45:12;98801.72;;;10.54;31.06
14273;BME280;7220;49.450;11.052;2023-04-04T16:49:13;98794.81;;;10.29;31.37
14273;BME280;7220;49.450;11.052;2023-04-04T16:53:13;98794.94;;;9.83;31.73
14273;BME280;7220;49.450;11.052;2023-04-04T16:57:13;98799.72;;;9.95;31.63
14273;BME280;7220;49.450;11.052;2023-04-04T17:01:14;98801.59;;;9.49;32.46
14273;BME280;7220;49.450;11.052;2023-04-04T17:05:15;98802.69;;;9.21;33.07
14273;BME280;7220;49.450;11.052;2023-04-04T17:09:15;98792.38;;;8.90;33.52
14273;BME280;7220;49.450;11.052;2023-04-04T17:13:16;98796.94;;;8.86;33.13
14273;BME280;7220;49.450;11.052;2023-04-04T17:17:17;98789.38;;;8.50;33.87
14273;BME280;7220;49.450;11.052;2023-04-04T17:21:18;98804.59;;;8.18;34.31
14273;BME280;7220;49.450;11.052;2023-04-04T17:25:19;98796.06;;;8.35;34.16
14273;BME280;7220;49.450;11.052;2023-04-04T17:29:25;98800.03;;;7.96;35.04
14273;BME280;7220;49.450;11.052;2023-04-04T17:33:25;98794.66;;;7.98;34.72
14273;BME280;7220;49.450;11.052;2023-04-04T17:37:26;98799.63;;;8.09;34.67
14273;BME280;7220;49.450;11.052;2023-04-04T17:41:28;98788.81;;;8.15;35.43
14273;BME280;7220;49.450;11.052;2023-04-04T17:45:29;98800.69;;;8.03;34.46
14273;BME280;7220;49.450;11.052;2023-04-04T17:49:29;98790.53;;;7.34;35.94
14273;BME280;7220;49.450;11.052;2023-04-04T17:53:30;98792.09;;;7.13;36.12
14273;BME280;7220;49.450;11.052;2023-04-04T17:57:30;98790.53;;;7.05;37.24
14273;BME280;7220;49.450;11.052;2023-04-04T18:01:31;98787.97;;;7.32;36.80
14273;BME280;7220;49.450;11.052;2023-04-04T18:05:32;98784.47;;;7.32;36.26
14273;BME280;7220;49.450;11.052;2023-04-04T18:09:32;98776.19;;;7.42;36.55
14273;BME280;7220;49.450;11.052;2023-04-04T18:13:32;98783.25;;;7.42;36.16
14273;BME280;7220;49.450;11.052;2023-04-04T18:17:33;98790.47;;;7.37;36.85
14273;BME280;7220;49.450;11.052;2023-04-04T18:21:33;98789.13;;;7.23;36.02
14273;BME280;7220;49.450;11.052;2023-04-04T18:25:33;98789.88;;;6.97;37.45
14273;BME280;7220;49.450;11.052;2023-04-04T18:29:34;98796.31;;;7.18;37.88
14273;BME280;7220;49.450;11.052;2023-04-04T18:33:34;98800.78;;;7.16;37.56
14273;BME280;7220;49.450;11.052;2023-04-04T18:37:36;98795.34;;;6.91;37.97
14273;BME280;7220;49.450;11.052;2023-04-04T18:41:36;98795.91;;;7.02;38.10
14273;BME280;7220;49.450;11.052;2023-04-04T18:45:37;98795.16;;;6.99;38.74
14273;BME280;7220;49.450;11.052;2023-04-04T18:49:37;98795.72;;;6.78;38.11
14273;BME280;7220;49.450;11.052;2023-04-04T18:53:37;98802.91;;;6.73;38.25
14273;BME280;7220;49.450;11.052;2023-04-04T18:57:38;98812.31;;;6.18;40.03
14273;BME280;7220;49.450;11.052;2023-04-04T19:01:38;98810.00;;;6.71;38.48
14273;BME280;7220;49.450;11.052;2023-04-04T19:05:39;98807.63;;;6.62;38.50
14273;BME280;7220;49.450;11.052;2023-04-04T19:09:41;98803.34;;;6.25;39.67
14273;BME280;7220;49.450;11.052;2023-04-04T19:13:42;98810.34;;;6.59;38.96
14273;BME280;7220;49.450;11.052;2023-04-04T19:17:43;98813.75;;;6.64;39.06
14273;BME280;7220;49.450;11.052;2023-04-04T19:21:43;98831.66;;;5.44;41.40
14273;BME280;7220;49.450;11.052;2023-04-04T19:25:44;98817.06;;;5.67;41.20
